Arkadelphia, Arkansas
Current Conditions -  °F | °C
As of 2:56 AM on Monday 24 Nov 2014 (Local Time) from KADF Reporting Station
Overcast Overcast  
Wind Chill: 51°   Ceiling: 3800
Heat Index: 51°   Visibility: 10mi
Dew Point: 43°   Wind: 8mph
Humidity: 74%   Direction: 280°W
Pressure: 29.73"   Gusts: NA
Location:  34.12°N, 93.05°W
Report Text: KADF 240856Z AUTO 28007KT 10SM OVC038 11/06 A2973 RMK AO2 53060 T01050061 SLP080
Loading
Personal Weather Stations






























Interactive Weather Map New forecast layout! Learn more

10-Day Weather Forecast

Advertisements
Track Severe Weather on mobile